sensor_id;sensor_type;location;lat;lon;timestamp;pressure;altitude;pressure_sealevel;temperature;humidity
79376;BME280;68846;53.150;18.136;2023-04-25T00:00:55;99836.71;;;12.68;74.86
79376;BME280;68846;53.150;18.136;2023-04-25T00:03:22;99822.47;;;12.62;74.72
79376;BME280;68846;53.150;18.136;2023-04-25T00:05:51;99837.23;;;12.68;74.83
79376;BME280;68846;53.150;18.136;2023-04-25T00:08:17;99837.98;;;12.66;74.84
79376;BME280;68846;53.150;18.136;2023-04-25T00:10:43;99832.91;;;12.61;74.95
79376;BME280;68846;53.150;18.136;2023-04-25T00:13:09;99830.45;;;12.57;74.85
79376;BME280;68846;53.150;18.136;2023-04-25T00:15:37;99830.65;;;12.56;74.94
79376;BME280;68846;53.150;18.136;2023-04-25T00:18:03;99832.59;;;12.57;74.77
79376;BME280;68846;53.150;18.136;2023-04-25T00:20:31;99830.63;;;12.58;74.93
79376;BME280;68846;53.150;18.136;2023-04-25T00:22:57;99819.05;;;12.51;74.85
79376;BME280;68846;53.150;18.136;2023-04-25T00:25:24;99831.02;;;12.56;74.97
79376;BME280;68846;53.150;18.136;2023-04-25T00:27:50;99834.39;;;12.54;74.91
79376;BME280;68846;53.150;18.136;2023-04-25T00:30:16;99831.79;;;12.50;74.77
79376;BME280;68846;53.150;18.136;2023-04-25T00:32:42;99830.28;;;12.42;74.74
79376;BME280;68846;53.150;18.136;2023-04-25T00:35:09;99831.92;;;12.35;74.77
79376;BME280;68846;53.150;18.136;2023-04-25T00:37:35;99832.67;;;12.32;74.96
79376;BME280;68846;53.150;18.136;2023-04-25T00:40:05;99832.38;;;12.25;74.82
79376;BME280;68846;53.150;18.136;2023-04-25T00:42:32;99836.46;;;12.23;74.86
79376;BME280;68846;53.150;18.136;2023-04-25T00:44:58;99836.87;;;12.18;74.68
79376;BME280;68846;53.150;18.136;2023-04-25T00:47:25;99836.39;;;12.12;74.55
79376;BME280;68846;53.150;18.136;2023-04-25T00:49:51;99839.26;;;12.07;74.55
79376;BME280;68846;53.150;18.136;2023-04-25T00:52:19;99838.81;;;11.98;74.40
79376;BME280;68846;53.150;18.136;2023-04-25T00:54:46;99844.51;;;11.91;74.48
79376;BME280;68846;53.150;18.136;2023-04-25T00:57:12;99840.84;;;11.85;74.46
79376;BME280;68846;53.150;18.136;2023-04-25T00:59:42;99843.34;;;11.77;74.18
79376;BME280;68846;53.150;18.136;2023-04-25T01:02:11;99841.44;;;11.71;74.18
79376;BME280;68846;53.150;18.136;2023-04-25T01:04:37;99843.42;;;11.65;74.20
79376;BME280;68846;53.150;18.136;2023-04-25T01:07:04;99840.10;;;11.60;74.15
79376;BME280;68846;53.150;18.136;2023-04-25T01:09:30;99845.42;;;11.56;74.15
79376;BME280;68846;53.150;18.136;2023-04-25T01:11:58;99842.63;;;11.52;73.86
79376;BME280;68846;53.150;18.136;2023-04-25T01:14:24;99843.38;;;11.46;73.99
79376;BME280;68846;53.150;18.136;2023-04-25T01:16:50;99848.17;;;11.38;73.97
79376;BME280;68846;53.150;18.136;2023-04-25T01:19:17;99847.34;;;11.29;73.78
79376;BME280;68846;53.150;18.136;2023-04-25T01:21:46;99847.23;;;11.19;73.78
79376;BME280;68846;53.150;18.136;2023-04-25T01:24:13;99844.08;;;11.13;73.81
79376;BME280;68846;53.150;18.136;2023-04-25T01:26:40;99843.04;;;11.09;73.70
79376;BME280;68846;53.150;18.136;2023-04-25T01:29:10;99844.30;;;11.06;73.81
79376;BME280;68846;53.150;18.136;2023-04-25T01:31:36;99846.77;;;11.05;73.73
79376;BME280;68846;53.150;18.136;2023-04-25T01:34:05;99850.48;;;11.01;73.75
79376;BME280;68846;53.150;18.136;2023-04-25T01:36:31;99850.49;;;10.95;73.86
79376;BME280;68846;53.150;18.136;2023-04-25T01:38:57;99849.83;;;10.87;73.79
79376;BME280;68846;53.150;18.136;2023-04-25T01:41:24;99852.84;;;10.79;73.99
79376;BME280;68846;53.150;18.136;2023-04-25T01:43:50;99843.71;;;10.71;73.95
79376;BME280;68846;53.150;18.136;2023-04-25T01:46:17;99854.97;;;10.73;73.95
79376;BME280;68846;53.150;18.136;2023-04-25T01:48:43;99852.69;;;10.71;73.74
79376;BME280;68846;53.150;18.136;2023-04-25T01:51:09;99852.70;;;10.71;73.69
79376;BME280;68846;53.150;18.136;2023-04-25T01:53:38;99840.58;;;10.60;73.71
79376;BME280;68846;53.150;18.136;2023-04-25T01:56:04;99857.10;;;10.65;73.51
79376;BME280;68846;53.150;18.136;2023-04-25T01:58:33;99858.71;;;10.61;73.62
79376;BME280;68846;53.150;18.136;2023-04-25T02:04:16;99855.39;;;10.42;73.32
79376;BME280;68846;53.150;18.136;2023-04-25T02:06:42;99869.84;;;10.41;73.36
79376;BME280;68846;53.150;18.136;2023-04-25T02:09:08;99861.75;;;10.34;73.13
79376;BME280;68846;53.150;18.136;2023-04-25T02:11:39;99853.67;;;10.27;73.34
79376;BME280;68846;53.150;18.136;2023-04-25T02:14:23;99857.89;;;10.26;73.33
79376;BME280;68846;53.150;18.136;2023-04-25T02:16:57;99869.84;;;10.29;73.29
79376;BME280;68846;53.150;18.136;2023-04-25T02:19:24;99859.65;;;10.20;73.53
79376;BME280;68846;53.150;18.136;2023-04-25T02:21:50;99877.23;;;10.21;73.48
79376;BME280;68846;53.150;18.136;2023-04-25T02:24:16;99874.05;;;10.17;73.52
79376;BME280;68846;53.150;18.136;2023-04-25T02:26:42;99863.31;;;10.07;73.48
79376;BME280;68846;53.150;18.136;2023-04-25T02:29:10;99877.91;;;10.11;73.89
79376;BME280;68846;53.150;18.136;2023-04-25T02:31:36;99872.48;;;10.08;74.15
79376;BME280;68846;53.150;18.136;2023-04-25T02:34:02;99877.91;;;10.07;73.69
79376;BME280;68846;53.150;18.136;2023-04-25T02:36:29;99875.98;;;10.05;74.18
79376;BME280;68846;53.150;18.136;2023-04-25T02:38:58;99881.25;;;10.05;74.31
79376;BME280;68846;53.150;18.136;2023-04-25T02:41:24;99878.08;;;10.07;74.08
79376;BME280;68846;53.150;18.136;2023-04-25T02:43:50;99882.84;;;10.05;73.96
79376;BME280;68846;53.150;18.136;2023-04-25T02:46:18;99884.42;;;10.04;74.08
79376;BME280;68846;53.150;18.136;2023-04-25T02:48:46;99863.84;;;9.93;74.28
79376;BME280;68846;53.150;18.136;2023-04-25T02:51:12;99885.83;;;10.06;74.23
79376;BME280;68846;53.150;18.136;2023-04-25T02:53:39;99881.43;;;10.06;74.20
79376;BME280;68846;53.150;18.136;2023-04-25T02:56:05;99883.02;;;10.01;74.25
79376;BME280;68846;53.150;18.136;2023-04-25T02:58:31;99886.70;;;10.01;74.13
79376;BME280;68846;53.150;18.136;2023-04-25T03:00:57;99884.59;;;9.99;74.11
79376;BME280;68846;53.150;18.136;2023-04-25T03:03:23;99884.42;;;10.00;73.67
79376;BME280;68846;53.150;18.136;2023-04-25T03:05:50;99886.18;;;9.99;73.68
79376;BME280;68846;53.150;18.136;2023-04-25T03:08:20;99888.11;;;9.98;73.40
79376;BME280;68846;53.150;18.136;2023-04-25T03:10:47;99869.46;;;9.79;73.29
79376;BME280;68846;53.150;18.136;2023-04-25T03:13:14;99890.75;;;9.88;73.45
79376;BME280;68846;53.150;18.136;2023-04-25T03:15:41;99888.65;;;9.85;73.33
79376;BME280;68846;53.150;18.136;2023-04-25T03:18:07;99889.34;;;9.80;73.55
79376;BME280;68846;53.150;18.136;2023-04-25T03:20:34;99881.77;;;9.71;73.21
79376;BME280;68846;53.150;18.136;2023-04-25T03:23:00;99895.31;;;9.73;73.03
79376;BME280;68846;53.150;18.136;2023-04-25T03:25:27;99884.73;;;9.65;73.10
79376;BME280;68846;53.150;18.136;2023-04-25T03:27:53;99898.80;;;9.66;72.86
79376;BME280;68846;53.150;18.136;2023-04-25T03:30:19;99899.31;;;9.59;72.83
79376;BME280;68846;53.150;18.136;2023-04-25T03:32:45;99893.67;;;9.58;73.26
79376;BME280;68846;53.150;18.136;2023-04-25T03:35:15;99894.73;;;9.58;73.06
79376;BME280;68846;53.150;18.136;2023-04-25T03:37:41;99894.03;;;9.53;72.82
79376;BME280;68846;53.150;18.136;2023-04-25T03:40:12;99890.12;;;9.37;72.79
79376;BME280;68846;53.150;18.136;2023-04-25T03:43:04;99905.75;;;9.34;72.87
79376;BME280;68846;53.150;18.136;2023-04-25T03:45:32;99907.83;;;9.25;73.12
79376;BME280;68846;53.150;18.136;2023-04-25T03:47:59;99912.00;;;9.17;73.34
79376;BME280;68846;53.150;18.136;2023-04-25T03:50:27;99913.23;;;9.14;73.40
79376;BME280;68846;53.150;18.136;2023-04-25T03:52:53;99915.86;;;9.14;73.15
79376;BME280;68846;53.150;18.136;2023-04-25T03:55:20;99921.48;;;9.14;73.08
79376;BME280;68846;53.150;18.136;2023-04-25T03:57:46;99925.17;;;9.14;73.13
79376;BME280;68846;53.150;18.136;2023-04-25T04:00:13;99925.33;;;9.11;73.27
79376;BME280;68846;53.150;18.136;2023-04-25T04:02:39;99930.77;;;9.10;72.98
79376;BME280;68846;53.150;18.136;2023-04-25T04:05:06;99936.38;;;9.11;73.18
79376;BME280;68846;53.150;18.136;2023-04-25T04:07:35;99939.71;;;9.08;73.09
79376;BME280;68846;53.150;18.136;2023-04-25T04:10:07;99943.92;;;9.06;73.16
79376;BME280;68846;53.150;18.136;2023-04-25T04:12:37;99943.02;;;9.03;73.10
79376;BME280;68846;53.150;18.136;2023-04-25T04:15:04;99938.05;;;8.92;72.76
79376;BME280;68846;53.150;18.136;2023-04-25T04:17:32;99949.14;;;8.97;72.88
79376;BME280;68846;53.150;18.136;2023-04-25T04:19:58;99947.55;;;8.97;72.76
79376;BME280;68846;53.150;18.136;2023-04-25T04:22:25;99952.48;;;8.98;72.90
79376;BME280;68846;53.150;18.136;2023-04-25T04:24:54;99945.08;;;8.93;72.52
79376;BME280;68846;53.150;18.136;2023-04-25T04:27:42;99953.01;;;8.94;72.79
79376;BME280;68846;53.150;18.136;2023-04-25T04:30:29;99963.39;;;9.02;72.71
79376;BME280;68846;53.150;18.136;2023-04-25T04:32:59;99967.61;;;9.04;72.67
79376;BME280;68846;53.150;18.136;2023-04-25T04:35:26;99967.96;;;9.04;72.68
79376;BME280;68846;53.150;18.136;2023-04-25T04:37:53;99969.38;;;9.05;72.49
79376;BME280;68846;53.150;18.136;2023-04-25T04:40:20;99967.61;;;9.04;72.29
79376;BME280;68846;53.150;18.136;2023-04-25T04:42:55;99958.10;;;8.94;72.28
79376;BME280;68846;53.150;18.136;2023-04-25T04:45:45;99969.54;;;8.99;72.07
79376;BME280;68846;53.150;18.136;2023-04-25T04:48:32;99971.05;;;8.90;71.85
79376;BME280;68846;53.150;18.136;2023-04-25T04:51:21;99967.34;;;8.87;72.27
79376;BME280;68846;53.150;18.136;2023-04-25T04:53:54;99949.70;;;8.74;72.12
79376;BME280;68846;53.150;18.136;2023-04-25T04:56:43;99971.89;;;8.83;72.21
79376;BME280;68846;53.150;18.136;2023-04-25T04:59:22;99969.09;;;8.84;72.06
79376;BME280;68846;53.150;18.136;2023-04-25T05:02:01;99972.25;;;8.84;72.11
79376;BME280;68846;53.150;18.136;2023-04-25T05:05:02;99974.52;;;8.84;72.32
79376;BME280;68846;53.150;18.136;2023-04-25T05:07:49;99972.55;;;8.77;72.12
79376;BME280;68846;53.150;18.136;2023-04-25T05:10:50;99977.82;;;8.78;72.16
79376;BME280;68846;53.150;18.136;2023-04-25T05:13:31;99983.44;;;8.78;71.97
79376;BME280;68846;53.150;18.136;2023-04-25T05:16:16;99980.28;;;8.78;72.00
79376;BME280;68846;53.150;18.136;2023-04-25T05:18:55;99976.06;;;8.79;72.01
79376;BME280;68846;53.150;18.136;2023-04-25T05:21:33;99975.52;;;8.74;71.75
79376;BME280;68846;53.150;18.136;2023-04-25T05:24:18;99974.62;;;8.73;71.92
79376;BME280;68846;53.150;18.136;2023-04-25T05:27:05;99977.08;;;8.72;71.39
79376;BME280;68846;53.150;18.136;2023-04-25T05:29:53;99979.16;;;8.69;71.60
79376;BME280;68846;53.150;18.136;2023-04-25T05:32:30;99979.84;;;8.69;71.70
79376;BME280;68846;53.150;18.136;2023-04-25T05:34:56;99980.71;;;8.65;71.19
79376;BME280;68846;53.150;18.136;2023-04-25T05:37:26;99984.41;;;8.66;71.57
79376;BME280;68846;53.150;18.136;2023-04-25T05:39:59;99985.84;;;8.70;71.41
79376;BME280;68846;53.150;18.136;2023-04-25T05:42:43;99990.27;;;8.75;71.36
79376;BME280;68846;53.150;18.136;2023-04-25T05:45:20;99990.69;;;8.83;71.26
79376;BME280;68846;53.150;18.136;2023-04-25T05:48:12;99988.23;;;8.84;70.95
79376;BME280;68846;53.150;18.136;2023-04-25T05:50:48;99992.08;;;8.83;70.74
79376;BME280;68846;53.150;18.136;2023-04-25T05:53:43;99994.85;;;8.80;71.09
79376;BME280;68846;53.150;18.136;2023-04-25T05:56:10;99987.66;;;8.78;71.10
79376;BME280;68846;53.150;18.136;2023-04-25T05:58:36;99992.79;;;8.84;70.85
79376;BME280;68846;53.150;18.136;2023-04-25T06:01:02;99993.33;;;8.87;71.04
79376;BME280;68846;53.150;18.136;2023-04-25T06:03:28;99995.81;;;8.89;70.92
79376;BME280;68846;53.150;18.136;2023-04-25T06:05:56;99999.52;;;8.94;70.62
79376;BME280;68846;53.150;18.136;2023-04-25T06:08:22;99991.08;;;8.91;70.79
79376;BME280;68846;53.150;18.136;2023-04-25T06:10:49;100003.60;;;9.01;70.61
79376;BME280;68846;53.150;18.136;2023-04-25T06:13:15;100001.02;;;9.10;70.81
79376;BME280;68846;53.150;18.136;2023-04-25T06:15:42;99999.66;;;9.18;70.75
79376;BME280;68846;53.150;18.136;2023-04-25T06:18:08;100001.09;;;9.21;70.35
79376;BME280;68846;53.150;18.136;2023-04-25T06:20:35;99999.86;;;9.21;69.91
79376;BME280;68846;53.150;18.136;2023-04-25T06:23:01;100003.89;;;9.18;69.77
79376;BME280;68846;53.150;18.136;2023-04-25T06:25:37;99990.83;;;9.06;69.91
79376;BME280;68846;53.150;18.136;2023-04-25T06:28:04;99998.39;;;9.10;69.72
79376;BME280;68846;53.150;18.136;2023-04-25T06:30:30;100000.30;;;9.06;69.44
79376;BME280;68846;53.150;18.136;2023-04-25T06:33:01;99998.34;;;9.03;69.93
79376;BME280;68846;53.150;18.136;2023-04-25T06:35:27;100001.19;;;9.06;69.69
79376;BME280;68846;53.150;18.136;2023-04-25T06:37:54;100003.83;;;9.07;69.82
79376;BME280;68846;53.150;18.136;2023-04-25T06:40:21;100004.20;;;9.11;69.94
79376;BME280;68846;53.150;18.136;2023-04-25T06:42:47;100001.06;;;9.17;69.77
79376;BME280;68846;53.150;18.136;2023-04-25T06:45:36;100002.69;;;9.23;69.79
79376;BME280;68846;53.150;18.136;2023-04-25T06:48:04;100000.76;;;9.24;69.27
79376;BME280;68846;53.150;18.136;2023-04-25T06:50:30;99997.05;;;9.21;69.47
79376;BME280;68846;53.150;18.136;2023-04-25T06:52:56;99998.80;;;9.23;69.61
79376;BME280;68846;53.150;18.136;2023-04-25T06:55:22;100000.77;;;9.25;69.28
79376;BME280;68846;53.150;18.136;2023-04-25T06:58:07;100004.11;;;9.25;68.97
79376;BME280;68846;53.150;18.136;2023-04-25T07:00:52;99999.88;;;9.23;68.83
79376;BME280;68846;53.150;18.136;2023-04-25T07:03:20;99998.27;;;9.23;68.97
79376;BME280;68846;53.150;18.136;2023-04-25T07:05:46;99996.55;;;9.25;69.04
79376;BME280;68846;53.150;18.136;2023-04-25T07:08:13;99991.15;;;9.34;69.17
79376;BME280;68846;53.150;18.136;2023-04-25T07:10:39;99990.52;;;9.48;69.04
79376;BME280;68846;53.150;18.136;2023-04-25T07:13:06;99990.55;;;9.59;68.01
79376;BME280;68846;53.150;18.136;2023-04-25T07:15:32;99992.16;;;9.66;68.24
79376;BME280;68846;53.150;18.136;2023-04-25T07:18:00;99995.35;;;9.73;67.56
79376;BME280;68846;53.150;18.136;2023-04-25T07:20:27;99995.34;;;9.76;67.25
79376;BME280;68846;53.150;18.136;2023-04-25T07:22:53;99990.78;;;9.75;67.67
79376;BME280;68846;53.150;18.136;2023-04-25T07:25:20;99995.40;;;9.90;66.80
79376;BME280;68846;53.150;18.136;2023-04-25T07:27:46;100002.98;;;9.97;65.84
79376;BME280;68846;53.150;18.136;2023-04-25T07:30:16;100001.58;;;9.99;65.81
79376;BME280;68846;53.150;18.136;2023-04-25T07:32:42;100005.10;;;9.97;65.48
79376;BME280;68846;53.150;18.136;2023-04-25T07:35:09;99994.34;;;9.92;65.78
79376;BME280;68846;53.150;18.136;2023-04-25T07:37:35;100004.76;;;10.01;65.45
79376;BME280;68846;53.150;18.136;2023-04-25T07:40:13;100002.82;;;10.03;65.26
79376;BME280;68846;53.150;18.136;2023-04-25T07:42:45;100006.88;;;10.03;65.37
79376;BME280;68846;53.150;18.136;2023-04-25T07:45:12;100004.05;;;10.04;65.28
79376;BME280;68846;53.150;18.136;2023-04-25T07:47:38;100003.17;;;10.03;64.67
79376;BME280;68846;53.150;18.136;2023-04-25T07:50:06;100009.84;;;10.01;64.53
79376;BME280;68846;53.150;18.136;2023-04-25T07:52:34;100006.84;;;10.01;64.18
79376;BME280;68846;53.150;18.136;2023-04-25T07:55:07;99994.72;;;10.00;64.95
79376;BME280;68846;53.150;18.136;2023-04-25T07:57:42;100004.08;;;10.18;65.25
79376;BME280;68846;53.150;18.136;2023-04-25T08:00:10;99998.66;;;10.27;64.54
79376;BME280;68846;53.150;18.136;2023-04-25T08:02:40;100003.79;;;10.41;64.80
79376;BME280;68846;53.150;18.136;2023-04-25T08:05:08;100005.38;;;10.53;63.99
79376;BME280;68846;53.150;18.136;2023-04-25T08:07:38;100004.14;;;10.59;63.23
79376;BME280;68846;53.150;18.136;2023-04-25T08:10:06;100003.08;;;10.60;63.10
79376;BME280;68846;53.150;18.136;2023-04-25T08:12:33;100007.32;;;10.61;62.92
79376;BME280;68846;53.150;18.136;2023-04-25T08:14:59;100006.44;;;10.62;62.96
79376;BME280;68846;53.150;18.136;2023-04-25T08:17:29;99988.64;;;10.53;63.38
79376;BME280;68846;53.150;18.136;2023-04-25T08:19:55;100013.30;;;10.68;62.43
79376;BME280;68846;53.150;18.136;2023-04-25T08:22:25;100013.65;;;10.67;61.95
79376;BME280;68846;53.150;18.136;2023-04-25T08:25:08;100015.58;;;10.66;62.54
79376;BME280;68846;53.150;18.136;2023-04-25T08:27:34;100019.27;;;10.67;63.07
79376;BME280;68846;53.150;18.136;2023-04-25T08:30:02;100020.88;;;10.70;63.31
79376;BME280;68846;53.150;18.136;2023-04-25T08:32:30;100014.18;;;10.70;63.06
79376;BME280;68846;53.150;18.136;2023-04-25T08:35:22;100030.73;;;10.79;63.09
79376;BME280;68846;53.150;18.136;2023-04-25T08:37:50;100030.02;;;10.83;62.98
79376;BME280;68846;53.150;18.136;2023-04-25T08:40:17;100028.08;;;10.84;62.15
79376;BME280;68846;53.150;18.136;2023-04-25T08:43:00;100027.03;;;10.82;62.37
79376;BME280;68846;53.150;18.136;2023-04-25T08:45:31;100030.72;;;10.86;62.16
79376;BME280;68846;53.150;18.136;2023-04-25T08:47:58;100028.42;;;10.89;61.87
79376;BME280;68846;53.150;18.136;2023-04-25T08:50:25;100025.62;;;10.92;62.05
79376;BME280;68846;53.150;18.136;2023-04-25T08:52:53;100031.95;;;10.98;62.10
79376;BME280;68846;53.150;18.136;2023-04-25T08:55:21;100018.04;;;10.97;61.86
79376;BME280;68846;53.150;18.136;2023-04-25T08:57:49;100026.30;;;11.07;62.19
79376;BME280;68846;53.150;18.136;2023-04-25T09:00:16;100025.76;;;11.12;62.22
79376;BME280;68846;53.150;18.136;2023-04-25T09:02:44;100017.83;;;11.13;62.41
79376;BME280;68846;53.150;18.136;2023-04-25T09:05:13;100026.42;;;11.29;62.13
79376;BME280;68846;53.150;18.136;2023-04-25T09:07:41;100017.44;;;11.27;62.10
79376;BME280;68846;53.150;18.136;2023-04-25T09:10:08;100033.13;;;11.35;61.86
79376;BME280;68846;53.150;18.136;2023-04-25T09:12:36;100035.58;;;11.34;61.46
79376;BME280;68846;53.150;18.136;2023-04-25T09:15:09;100024.16;;;11.20;61.55
79376;BME280;68846;53.150;18.136;2023-04-25T09:17:55;100047.77;;;11.25;61.77
79376;BME280;68846;53.150;18.136;2023-04-25T09:20:22;100047.42;;;11.21;61.87
79376;BME280;68846;53.150;18.136;2023-04-25T09:22:48;100053.26;;;11.14;61.85
79376;BME280;68846;53.150;18.136;2023-04-25T09:25:14;100052.72;;;11.09;62.01
79376;BME280;68846;53.150;18.136;2023-04-25T09:28:06;100054.66;;;11.09;62.25
79376;BME280;68846;53.150;18.136;2023-04-25T09:30:58;100053.24;;;11.10;62.13
79376;BME280;68846;53.150;18.136;2023-04-25T09:33:33;100054.13;;;11.12;62.55
79376;BME280;68846;53.150;18.136;2023-04-25T09:36:05;100052.20;;;11.17;62.14
79376;BME280;68846;53.150;18.136;2023-04-25T09:39:12;100046.36;;;11.18;61.81
79376;BME280;68846;53.150;18.136;2023-04-25T09:41:45;100060.29;;;11.29;61.92
79376;BME280;68846;53.150;18.136;2023-04-25T09:44:14;100059.20;;;11.34;61.80
79376;BME280;68846;53.150;18.136;2023-04-25T09:46:41;100059.18;;;11.42;61.77
79376;BME280;68846;53.150;18.136;2023-04-25T09:49:14;100049.30;;;11.44;61.75
79376;BME280;68846;53.150;18.136;2023-04-25T09:51:59;100061.95;;;11.61;61.63
79376;BME280;68846;53.150;18.136;2023-04-25T09:54:33;100066.85;;;11.75;61.41
79376;BME280;68846;53.150;18.136;2023-04-25T09:57:24;100064.69;;;11.90;60.27
79376;BME280;68846;53.150;18.136;2023-04-25T09:59:53;100069.77;;;11.99;59.66
79376;BME280;68846;53.150;18.136;2023-04-25T10:02:25;100065.34;;;12.03;59.06
79376;BME280;68846;53.150;18.136;2023-04-25T10:04:55;100059.70;;;12.03;58.67
79376;BME280;68846;53.150;18.136;2023-04-25T10:07:30;100057.36;;;12.09;58.40
79376;BME280;68846;53.150;18.136;2023-04-25T10:10:02;100066.48;;;12.22;57.69
79376;BME280;68846;53.150;18.136;2023-04-25T10:12:30;100070.16;;;12.26;55.19
79376;BME280;68846;53.150;18.136;2023-04-25T10:15:00;100073.37;;;12.21;54.97
79376;BME280;68846;53.150;18.136;2023-04-25T10:17:27;100070.41;;;12.13;54.36
79376;BME280;68846;53.150;18.136;2023-04-25T10:19:56;100073.47;;;12.03;55.69
79376;BME280;68846;53.150;18.136;2023-04-25T10:22:29;100076.30;;;11.99;56.85
79376;BME280;68846;53.150;18.136;2023-04-25T10:24:56;100078.96;;;11.94;56.60
79376;BME280;68846;53.150;18.136;2023-04-25T10:27:23;100077.59;;;11.86;57.12
79376;BME280;68846;53.150;18.136;2023-04-25T10:30:11;100085.38;;;11.84;57.63
79376;BME280;68846;53.150;18.136;2023-04-25T10:32:44;100082.38;;;11.84;57.08
79376;BME280;68846;53.150;18.136;2023-04-25T10:35:26;100083.80;;;11.82;57.18
79376;BME280;68846;53.150;18.136;2023-04-25T10:38:08;100086.96;;;11.83;57.40
79376;BME280;68846;53.150;18.136;2023-04-25T10:40:35;100086.25;;;11.81;57.64
79376;BME280;68846;53.150;18.136;2023-04-25T10:45:59;100086.42;;;11.85;57.92
79376;BME280;68846;53.150;18.136;2023-04-25T10:48:30;100086.40;;;11.91;57.97
79376;BME280;68846;53.150;18.136;2023-04-25T10:51:27;100087.42;;;11.98;57.13
79376;BME280;68846;53.150;18.136;2023-04-25T10:54:02;100089.52;;;11.98;56.46
79376;BME280;68846;53.150;18.136;2023-04-25T10:56:33;100093.77;;;11.97;56.57
79376;BME280;68846;53.150;18.136;2023-04-25T10:59:12;100087.59;;;11.98;56.21
79376;BME280;68846;53.150;18.136;2023-04-25T11:01:42;100074.91;;;11.95;56.66
79376;BME280;68846;53.150;18.136;2023-04-25T11:04:31;100077.89;;;12.03;56.77
79376;BME280;68846;53.150;18.136;2023-04-25T11:09:28;100081.99;;;12.25;56.06
79376;BME280;68846;53.150;18.136;2023-04-25T11:11:57;100078.80;;;12.28;55.49
79376;BME280;68846;53.150;18.136;2023-04-25T11:14:25;100080.03;;;12.30;55.69
79376;BME280;68846;53.150;18.136;2023-04-25T11:16:58;100087.23;;;12.34;55.90
79376;BME280;68846;53.150;18.136;2023-04-25T11:19:25;100076.65;;;12.33;55.80
79376;BME280;68846;53.150;18.136;2023-04-25T11:21:55;100084.89;;;12.43;55.77
79376;BME280;68846;53.150;18.136;2023-04-25T11:24:32;100088.93;;;12.46;55.15
79376;BME280;68846;53.150;18.136;2023-04-25T11:27:01;100068.38;;;12.31;54.97
79376;BME280;68846;53.150;18.136;2023-04-25T11:29:31;100094.08;;;12.40;55.64
79376;BME280;68846;53.150;18.136;2023-04-25T11:31:59;100091.27;;;12.39;55.46
79376;BME280;68846;53.150;18.136;2023-04-25T11:34:27;100096.20;;;12.39;55.40
79376;BME280;68846;53.150;18.136;2023-04-25T11:36:57;100096.77;;;12.35;55.52
79376;BME280;68846;53.150;18.136;2023-04-25T11:39:24;100092.90;;;12.32;55.85
79376;BME280;68846;53.150;18.136;2023-04-25T11:41:51;100083.75;;;12.27;56.25
79376;BME280;68846;53.150;18.136;2023-04-25T11:44:17;100094.48;;;12.36;55.93
79376;BME280;68846;53.150;18.136;2023-04-25T11:46:45;100094.48;;;12.34;55.89
79376;BME280;68846;53.150;18.136;2023-04-25T11:49:12;100092.17;;;12.35;55.77
79376;BME280;68846;53.150;18.136;2023-04-25T11:51:45;100083.75;;;12.29;55.47
79376;BME280;68846;53.150;18.136;2023-04-25T11:54:13;100098.17;;;12.35;55.84
79376;BME280;68846;53.150;18.136;2023-04-25T11:56:44;100086.56;;;12.28;55.38
79376;BME280;68846;53.150;18.136;2023-04-25T11:59:12;100106.67;;;12.33;55.71
79376;BME280;68846;53.150;18.136;2023-04-25T12:01:41;100104.20;;;12.32;55.60
79376;BME280;68846;53.150;18.136;2023-04-25T12:04:21;100098.07;;;12.25;55.78
79376;BME280;68846;53.150;18.136;2023-04-25T12:06:51;100108.45;;;12.29;56.10
79376;BME280;68846;53.150;18.136;2023-04-25T12:09:19;100105.45;;;12.31;56.16
79376;BME280;68846;53.150;18.136;2023-04-25T12:11:48;100105.10;;;12.30;55.86
79376;BME280;68846;53.150;18.136;2023-04-25T12:14:36;100105.29;;;12.28;55.87
79376;BME280;68846;53.150;18.136;2023-04-25T12:17:04;100107.05;;;12.28;56.13
79376;BME280;68846;53.150;18.136;2023-04-25T12:19:38;100111.83;;;12.29;56.00
79376;BME280;68846;53.150;18.136;2023-04-25T12:22:23;100116.56;;;12.32;55.47
79376;BME280;68846;53.150;18.136;2023-04-25T12:24:50;100106.88;;;12.27;55.36
79376;BME280;68846;53.150;18.136;2023-04-25T12:27:19;100115.66;;;12.34;55.31
79376;BME280;68846;53.150;18.136;2023-04-25T12:29:53;100117.26;;;12.36;55.20
79376;BME280;68846;53.150;18.136;2023-04-25T12:32:19;100116.17;;;12.39;54.67
79376;BME280;68846;53.150;18.136;2023-04-25T12:34:46;100112.29;;;12.39;53.19
79376;BME280;68846;53.150;18.136;2023-04-25T12:37:12;100109.99;;;12.39;53.71
79376;BME280;68846;53.150;18.136;2023-04-25T12:39:39;100099.24;;;12.36;53.75
79376;BME280;68846;53.150;18.136;2023-04-25T12:42:05;100112.59;;;12.47;52.73
79376;BME280;68846;53.150;18.136;2023-04-25T12:44:34;100107.83;;;12.49;53.28
79376;BME280;68846;53.150;18.136;2023-04-25T12:47:01;100110.08;;;12.54;53.68
79376;BME280;68846;53.150;18.136;2023-04-25T12:49:28;100107.03;;;12.62;53.79
79376;BME280;68846;53.150;18.136;2023-04-25T12:51:55;100102.95;;;12.66;53.47
79376;BME280;68846;53.150;18.136;2023-04-25T12:54:21;100106.27;;;12.69;53.97
79376;BME280;68846;53.150;18.136;2023-04-25T12:56:47;100107.14;;;12.72;53.89
79376;BME280;68846;53.150;18.136;2023-04-25T12:59:13;100102.55;;;12.73;53.70
79376;BME280;68846;53.150;18.136;2023-04-25T13:01:39;100098.81;;;12.75;54.16
79376;BME280;68846;53.150;18.136;2023-04-25T13:04:05;100098.61;;;12.77;53.71
79376;BME280;68846;53.150;18.136;2023-04-25T13:06:32;100096.31;;;12.77;53.61
79376;BME280;68846;53.150;18.136;2023-04-25T13:08:58;100094.07;;;12.71;53.08
79376;BME280;68846;53.150;18.136;2023-04-25T13:11:24;100087.77;;;12.62;53.60
79376;BME280;68846;53.150;18.136;2023-04-25T13:13:51;100095.52;;;12.67;53.43